sensor_id;sensor_type;location;lat;lon;timestamp;P1;durP1;ratioP1;P2;durP2;ratioP2
16967;SDS011;64862;54.398;10.126;2023-08-07T00:04:44;3.70;;;1.38;;
16967;SDS011;64862;54.398;10.126;2023-08-07T00:14:48;6.50;;;1.40;;
16967;SDS011;64862;54.398;10.126;2023-08-07T00:24:52;3.67;;;1.70;;
16967;SDS011;64862;54.398;10.126;2023-08-07T00:34:55;3.33;;;1.40;;
16967;SDS011;64862;54.398;10.126;2023-08-07T00:44:57;5.30;;;1.25;;
16967;SDS011;64862;54.398;10.126;2023-08-07T00:55:03;4.05;;;1.30;;
16967;SDS011;64862;54.398;10.126;2023-08-07T01:05:06;4.38;;;1.48;;
16967;SDS011;64862;54.398;10.126;2023-08-07T01:15:12;3.78;;;1.63;;
16967;SDS011;64862;54.398;10.126;2023-08-07T01:35:20;4.78;;;1.50;;
16967;SDS011;64862;54.398;10.126;2023-08-07T01:45:27;5.30;;;1.90;;
16967;SDS011;64862;54.398;10.126;2023-08-07T01:55:30;5.28;;;1.98;;
16967;SDS011;64862;54.398;10.126;2023-08-07T02:05:34;4.63;;;1.80;;
16967;SDS011;64862;54.398;10.126;2023-08-07T02:15:36;5.22;;;2.13;;
16967;SDS011;64862;54.398;10.126;2023-08-07T02:25:40;7.78;;;2.22;;
16967;SDS011;64862;54.398;10.126;2023-08-07T02:35:42;4.35;;;1.88;;
16967;SDS011;64862;54.398;10.126;2023-08-07T02:45:46;4.82;;;2.15;;
16967;SDS011;64862;54.398;10.126;2023-08-07T02:55:48;8.82;;;2.13;;
16967;SDS011;64862;54.398;10.126;2023-08-07T03:05:52;5.35;;;1.85;;
16967;SDS011;64862;54.398;10.126;2023-08-07T03:15:58;6.72;;;2.03;;
16967;SDS011;64862;54.398;10.126;2023-08-07T03:26:02;7.77;;;2.27;;
16967;SDS011;64862;54.398;10.126;2023-08-07T03:36:06;5.72;;;1.67;;
16967;SDS011;64862;54.398;10.126;2023-08-07T03:46:09;5.68;;;1.80;;
16967;SDS011;64862;54.398;10.126;2023-08-07T03:56:12;8.77;;;1.77;;
16967;SDS011;64862;54.398;10.126;2023-08-07T04:06:16;8.60;;;2.17;;
16967;SDS011;64862;54.398;10.126;2023-08-07T04:16:19;7.30;;;2.17;;
16967;SDS011;64862;54.398;10.126;2023-08-07T04:26:23;12.48;;;1.80;;
16967;SDS011;64862;54.398;10.126;2023-08-07T04:36:25;8.02;;;2.00;;
16967;SDS011;64862;54.398;10.126;2023-08-07T04:46:28;7.82;;;2.15;;
16967;SDS011;64862;54.398;10.126;2023-08-07T04:56:31;8.10;;;1.80;;
16967;SDS011;64862;54.398;10.126;2023-08-07T05:06:35;11.05;;;2.20;;
16967;SDS011;64862;54.398;10.126;2023-08-07T05:16:37;7.88;;;2.22;;
16967;SDS011;64862;54.398;10.126;2023-08-07T05:26:40;13.50;;;2.50;;
16967;SDS011;64862;54.398;10.126;2023-08-07T05:36:44;11.35;;;2.20;;
16967;SDS011;64862;54.398;10.126;2023-08-07T05:46:47;13.80;;;2.80;;
16967;SDS011;64862;54.398;10.126;2023-08-07T05:56:49;18.13;;;2.80;;
16967;SDS011;64862;54.398;10.126;2023-08-07T06:06:52;17.85;;;2.95;;
16967;SDS011;64862;54.398;10.126;2023-08-07T06:16:54;16.80;;;3.03;;
16967;SDS011;64862;54.398;10.126;2023-08-07T06:26:59;20.33;;;3.13;;
16967;SDS011;64862;54.398;10.126;2023-08-07T06:37:01;19.98;;;3.38;;
16967;SDS011;64862;54.398;10.126;2023-08-07T06:47:06;18.35;;;3.58;;
16967;SDS011;64862;54.398;10.126;2023-08-07T06:57:09;16.92;;;3.20;;
16967;SDS011;64862;54.398;10.126;2023-08-07T07:07:12;15.98;;;2.95;;
16967;SDS011;64862;54.398;10.126;2023-08-07T07:17:14;22.90;;;3.70;;
16967;SDS011;64862;54.398;10.126;2023-08-07T07:27:17;21.08;;;3.28;;
16967;SDS011;64862;54.398;10.126;2023-08-07T07:37:20;17.05;;;3.08;;
16967;SDS011;64862;54.398;10.126;2023-08-07T07:47:23;22.05;;;3.53;;
16967;SDS011;64862;54.398;10.126;2023-08-07T07:57:26;19.95;;;3.50;;
16967;SDS011;64862;54.398;10.126;2023-08-07T08:07:29;21.40;;;3.80;;
16967;SDS011;64862;54.398;10.126;2023-08-07T08:17:33;20.80;;;3.40;;
16967;SDS011;64862;54.398;10.126;2023-08-07T08:27:37;16.95;;;3.53;;
16967;SDS011;64862;54.398;10.126;2023-08-07T08:37:38;27.33;;;3.67;;
16967;SDS011;64862;54.398;10.126;2023-08-07T08:47:42;18.95;;;3.50;;
16967;SDS011;64862;54.398;10.126;2023-08-07T08:57:46;17.75;;;3.40;;
16967;SDS011;64862;54.398;10.126;2023-08-07T09:07:49;25.02;;;3.53;;
16967;SDS011;64862;54.398;10.126;2023-08-07T09:17:51;21.20;;;3.60;;
16967;SDS011;64862;54.398;10.126;2023-08-07T09:27:57;28.08;;;3.30;;
16967;SDS011;64862;54.398;10.126;2023-08-07T09:38:00;25.65;;;3.78;;
16967;SDS011;64862;54.398;10.126;2023-08-07T09:48:05;14.20;;;3.08;;
16967;SDS011;64862;54.398;10.126;2023-08-07T09:58:08;21.27;;;3.80;;
16967;SDS011;64862;54.398;10.126;2023-08-07T10:08:14;18.15;;;3.17;;
16967;SDS011;64862;54.398;10.126;2023-08-07T10:18:16;16.50;;;3.25;;
16967;SDS011;64862;54.398;10.126;2023-08-07T10:28:19;23.73;;;3.63;;
16967;SDS011;64862;54.398;10.126;2023-08-07T10:38:24;20.92;;;2.90;;
16967;SDS011;64862;54.398;10.126;2023-08-07T10:48:27;13.32;;;2.53;;
16967;SDS011;64862;54.398;10.126;2023-08-07T10:58:32;16.40;;;2.55;;
16967;SDS011;64862;54.398;10.126;2023-08-07T11:08:36;11.93;;;2.80;;
16967;SDS011;64862;54.398;10.126;2023-08-07T11:18:39;16.33;;;2.50;;
16967;SDS011;64862;54.398;10.126;2023-08-07T11:28:43;13.35;;;2.30;;
16967;SDS011;64862;54.398;10.126;2023-08-07T11:38:45;17.70;;;2.55;;
16967;SDS011;64862;54.398;10.126;2023-08-07T11:48:48;14.38;;;2.53;;
16967;SDS011;64862;54.398;10.126;2023-08-07T11:58:50;19.35;;;3.47;;
16967;SDS011;64862;54.398;10.126;2023-08-07T12:08:55;14.65;;;2.53;;
16967;SDS011;64862;54.398;10.126;2023-08-07T12:18:58;16.38;;;2.67;;
16967;SDS011;64862;54.398;10.126;2023-08-07T12:29:01;11.88;;;2.65;;
16967;SDS011;64862;54.398;10.126;2023-08-07T12:39:03;15.38;;;2.67;;
16967;SDS011;64862;54.398;10.126;2023-08-07T12:49:09;13.20;;;2.38;;
16967;SDS011;64862;54.398;10.126;2023-08-07T12:59:11;13.40;;;2.20;;
16967;SDS011;64862;54.398;10.126;2023-08-07T13:09:14;12.52;;;2.72;;
16967;SDS011;64862;54.398;10.126;2023-08-07T13:19:16;16.90;;;2.85;;
16967;SDS011;64862;54.398;10.126;2023-08-07T13:29:20;15.18;;;2.85;;
16967;SDS011;64862;54.398;10.126;2023-08-07T13:39:22;20.05;;;3.35;;
16967;SDS011;64862;54.398;10.126;2023-08-07T13:49:26;18.08;;;2.78;;
16967;SDS011;64862;54.398;10.126;2023-08-07T13:59:28;17.00;;;3.13;;
16967;SDS011;64862;54.398;10.126;2023-08-07T14:09:32;15.50;;;2.75;;
16967;SDS011;64862;54.398;10.126;2023-08-07T14:19:33;18.02;;;3.10;;
16967;SDS011;64862;54.398;10.126;2023-08-07T14:29:36;14.98;;;2.60;;
16967;SDS011;64862;54.398;10.126;2023-08-07T14:39:38;10.95;;;2.33;;
16967;SDS011;64862;54.398;10.126;2023-08-07T14:49:42;17.33;;;2.85;;
16967;SDS011;64862;54.398;10.126;2023-08-07T14:59:44;18.10;;;2.75;;
16967;SDS011;64862;54.398;10.126;2023-08-07T15:09:47;18.25;;;3.30;;
16967;SDS011;64862;54.398;10.126;2023-08-07T15:19:50;12.05;;;2.10;;
16967;SDS011;64862;54.398;10.126;2023-08-07T15:29:53;12.48;;;2.40;;
16967;SDS011;64862;54.398;10.126;2023-08-07T15:39:55;20.00;;;2.90;;
16967;SDS011;64862;54.398;10.126;2023-08-07T15:49:58;16.42;;;2.40;;
16967;SDS011;64862;54.398;10.126;2023-08-07T16:00:00;16.67;;;2.38;;
16967;SDS011;64862;54.398;10.126;2023-08-07T16:10:14;13.30;;;2.50;;
16967;SDS011;64862;54.398;10.126;2023-08-07T16:20:16;16.23;;;2.67;;
16967;SDS011;64862;54.398;10.126;2023-08-07T16:30:19;19.65;;;2.97;;
16967;SDS011;64862;54.398;10.126;2023-08-07T16:40:21;15.95;;;2.70;;
16967;SDS011;64862;54.398;10.126;2023-08-07T16:50:24;19.10;;;2.90;;
16967;SDS011;64862;54.398;10.126;2023-08-07T17:00:27;18.58;;;3.42;;
16967;SDS011;64862;54.398;10.126;2023-08-07T17:10:30;25.00;;;3.80;;
16967;SDS011;64862;54.398;10.126;2023-08-07T17:20:32;16.63;;;3.13;;
16967;SDS011;64862;54.398;10.126;2023-08-07T17:30:35;26.20;;;3.47;;
16967;SDS011;64862;54.398;10.126;2023-08-07T17:40:37;23.48;;;3.38;;
16967;SDS011;64862;54.398;10.126;2023-08-07T17:50:40;17.35;;;2.55;;
16967;SDS011;64862;54.398;10.126;2023-08-07T18:00:42;19.15;;;2.90;;
16967;SDS011;64862;54.398;10.126;2023-08-07T18:10:45;12.85;;;2.67;;
16967;SDS011;64862;54.398;10.126;2023-08-07T18:20:49;15.10;;;2.75;;
16967;SDS011;64862;54.398;10.126;2023-08-07T18:30:53;18.95;;;3.45;;
16967;SDS011;64862;54.398;10.126;2023-08-07T18:40:56;17.40;;;3.50;;
16967;SDS011;64862;54.398;10.126;2023-08-07T18:51:00;16.00;;;3.40;;
16967;SDS011;64862;54.398;10.126;2023-08-07T19:01:04;24.92;;;3.90;;
16967;SDS011;64862;54.398;10.126;2023-08-07T19:11:07;20.42;;;3.50;;
16967;SDS011;64862;54.398;10.126;2023-08-07T19:21:09;18.00;;;4.13;;
16967;SDS011;64862;54.398;10.126;2023-08-07T19:31:12;21.50;;;3.80;;
16967;SDS011;64862;54.398;10.126;2023-08-07T19:41:15;28.20;;;4.10;;
16967;SDS011;64862;54.398;10.126;2023-08-07T19:51:19;20.20;;;3.70;;
16967;SDS011;64862;54.398;10.126;2023-08-07T20:01:21;18.13;;;3.70;;
16967;SDS011;64862;54.398;10.126;2023-08-07T20:11:25;21.52;;;3.55;;
16967;SDS011;64862;54.398;10.126;2023-08-07T20:21:27;23.25;;;4.10;;
16967;SDS011;64862;54.398;10.126;2023-08-07T20:31:30;23.65;;;4.18;;
16967;SDS011;64862;54.398;10.126;2023-08-07T20:41:32;19.83;;;4.18;;
16967;SDS011;64862;54.398;10.126;2023-08-07T20:51:35;17.10;;;3.55;;
16967;SDS011;64862;54.398;10.126;2023-08-07T21:01:38;22.42;;;3.65;;
16967;SDS011;64862;54.398;10.126;2023-08-07T21:11:45;19.25;;;3.55;;
16967;SDS011;64862;54.398;10.126;2023-08-07T21:21:48;26.98;;;4.15;;
16967;SDS011;64862;54.398;10.126;2023-08-07T21:31:52;26.67;;;3.78;;
16967;SDS011;64862;54.398;10.126;2023-08-07T21:41:53;21.63;;;3.53;;
16967;SDS011;64862;54.398;10.126;2023-08-07T21:51:57;24.42;;;3.97;;
16967;SDS011;64862;54.398;10.126;2023-08-07T22:01:59;16.25;;;3.40;;
16967;SDS011;64862;54.398;10.126;2023-08-07T22:12:03;20.73;;;3.53;;
16967;SDS011;64862;54.398;10.126;2023-08-07T22:22:06;23.85;;;3.42;;
16967;SDS011;64862;54.398;10.126;2023-08-07T22:32:10;18.70;;;3.72;;
16967;SDS011;64862;54.398;10.126;2023-08-07T22:42:12;18.50;;;3.35;;
16967;SDS011;64862;54.398;10.126;2023-08-07T22:52:15;23.70;;;3.40;;
16967;SDS011;64862;54.398;10.126;2023-08-07T23:02:17;16.23;;;3.47;;
16967;SDS011;64862;54.398;10.126;2023-08-07T23:12:20;15.52;;;3.33;;
16967;SDS011;64862;54.398;10.126;2023-08-07T23:22:24;20.00;;;3.55;;
16967;SDS011;64862;54.398;10.126;2023-08-07T23:32:28;19.38;;;3.28;;
16967;SDS011;64862;54.398;10.126;2023-08-07T23:42:29;17.90;;;3.10;;
16967;SDS011;64862;54.398;10.126;2023-08-07T23:52:33;21.67;;;3.10;;
